createdAt,value
2018-09-06T00:00:01.441Z,18.00
2018-09-06T00:00:22.099Z,18.00
2018-09-06T00:00:42.035Z,17.99
2018-09-06T00:01:02.636Z,17.99
2018-09-06T00:01:22.790Z,17.98
2018-09-06T00:01:42.638Z,17.96
2018-09-06T00:02:03.339Z,17.96
2018-09-06T00:02:23.482Z,17.92
2018-09-06T00:02:43.390Z,17.92
2018-09-06T00:03:04.062Z,17.90
2018-09-06T00:03:24.201Z,17.88
2018-09-06T00:03:44.053Z,17.88
2018-09-06T00:04:04.745Z,17.86
2018-09-06T00:04:24.795Z,17.86
2018-09-06T00:04:44.658Z,17.84
2018-09-06T00:05:05.357Z,17.83
2018-09-06T00:05:25.204Z,17.83
2018-09-06T00:05:45.613Z,17.85
2018-09-06T00:06:06.351Z,17.84
2018-09-06T00:06:26.248Z,17.84
2018-09-06T00:06:46.613Z,17.83
2018-09-06T00:07:07.284Z,17.81
2018-09-06T00:07:27.132Z,17.80
2018-09-06T00:07:47.523Z,17.79
2018-09-06T00:08:07.901Z,17.77
2018-09-06T00:08:28.254Z,17.75
2018-09-06T00:08:48.951Z,17.75
2018-09-06T00:09:08.851Z,17.72
2018-09-06T00:09:29.196Z,17.71
2018-09-06T00:09:49.901Z,17.70
2018-09-06T00:10:09.758Z,17.68
2018-09-06T00:10:30.160Z,17.65
2018-09-06T00:10:50.863Z,17.64
2018-09-06T00:11:10.732Z,17.64
2018-09-06T00:11:31.081Z,17.62
2018-09-06T00:11:51.712Z,17.62
2018-09-06T00:12:11.574Z,17.61
2018-09-06T00:12:32.132Z,17.60
2018-09-06T00:12:52.332Z,17.59
2018-09-06T00:13:12.186Z,17.58
2018-09-06T00:13:32.662Z,17.57
2018-09-06T00:13:53.840Z,17.56
2018-09-06T00:14:13.401Z,17.54
2018-09-06T00:14:33.528Z,17.52
2018-09-06T00:14:53.673Z,17.50
2018-09-06T00:15:13.794Z,17.48
2018-09-06T00:15:33.991Z,17.47
2018-09-06T00:15:53.978Z,17.45
2018-09-06T00:16:14.326Z,17.45
2018-09-06T00:16:35.021Z,17.43
2018-09-06T00:16:54.860Z,17.42
2018-09-06T00:17:15.409Z,17.42
2018-09-06T00:17:35.619Z,17.41
2018-09-06T00:17:55.468Z,17.40
2018-09-06T00:18:15.935Z,17.39
2018-09-06T00:18:36.596Z,17.38
2018-09-06T00:18:56.437Z,17.37
2018-09-06T00:19:16.795Z,17.37
2018-09-06T00:19:37.449Z,17.38
2018-09-06T00:19:57.320Z,17.37
2018-09-06T00:20:17.685Z,17.36
2018-09-06T00:20:38.329Z,17.35
2018-09-06T00:20:58.191Z,17.34
2018-09-06T00:21:18.905Z,17.32
2018-09-06T00:21:39.146Z,17.31
2018-09-06T00:21:59.009Z,17.31
2018-09-06T00:22:19.708Z,17.29
2018-09-06T00:22:39.573Z,17.28
2018-09-06T00:23:00.003Z,17.27
2018-09-06T00:23:20.708Z,17.25
2018-09-06T00:23:40.549Z,17.24
2018-09-06T00:24:00.901Z,17.23
2018-09-06T00:24:21.588Z,17.21
2018-09-06T00:24:41.436Z,17.19
2018-09-06T00:25:02.067Z,17.19
2018-09-06T00:25:22.212Z,17.18
2018-09-06T00:25:42.066Z,17.16
2018-09-06T00:26:02.690Z,17.15
2018-09-06T00:26:22.833Z,17.14
2018-09-06T00:26:42.688Z,17.12
2018-09-06T00:27:03.385Z,17.11
2018-09-06T00:27:23.530Z,17.10
2018-09-06T00:27:43.612Z,17.09
2018-09-06T00:28:03.865Z,17.07
2018-09-06T00:28:24.007Z,17.08
2018-09-06T00:28:43.860Z,17.07
2018-09-06T00:29:04.505Z,17.07
2018-09-06T00:29:24.738Z,17.07
2018-09-06T00:29:44.587Z,17.07
2018-09-06T00:30:05.301Z,17.05
2018-09-06T00:30:25.291Z,17.04
2018-09-06T00:30:45.648Z,17.03
2018-09-06T00:31:06.271Z,17.03
2018-09-06T00:31:26.196Z,17.01
2018-09-06T00:31:46.545Z,17.01
2018-09-06T00:32:07.212Z,17.01
2018-09-06T00:32:27.321Z,17.01
2018-09-06T00:32:47.175Z,16.99
2018-09-06T00:33:07.811Z,17.00
2018-09-06T00:33:27.688Z,17.00
2018-09-06T00:33:48.224Z,16.98
2018-09-06T00:34:08.225Z,16.98
2018-09-06T00:34:28.145Z,16.97
2018-09-06T00:34:48.865Z,16.96
2018-09-06T00:35:09.099Z,16.95
2018-09-06T00:35:28.950Z,16.95
2018-09-06T00:35:49.675Z,16.95
2018-09-06T00:36:09.828Z,16.94
2018-09-06T00:36:29.800Z,16.95
2018-09-06T00:36:50.530Z,16.93
2018-09-06T00:37:10.674Z,16.92
2018-09-06T00:37:30.527Z,16.92
2018-09-06T00:37:51.230Z,16.92
2018-09-06T00:38:11.345Z,16.91
2018-09-06T00:38:31.216Z,16.91
2018-09-06T00:39:11.629Z,16.91
2018-09-06T00:39:31.998Z,16.90
2018-09-06T00:39:52.643Z,16.88
2018-09-06T00:40:12.509Z,16.86
2018-09-06T00:40:32.873Z,16.87
2018-09-06T00:40:53.537Z,16.86
2018-09-06T00:41:13.421Z,16.85
2018-09-06T00:41:34.135Z,16.86
2018-09-06T00:41:54.369Z,16.85
2018-09-06T00:42:14.240Z,16.86
2018-09-06T00:42:34.939Z,16.84
2018-09-06T00:42:54.789Z,16.82
2018-09-06T00:43:15.162Z,16.82
2018-09-06T00:43:35.894Z,16.81
2018-09-06T00:43:55.761Z,16.80
2018-09-06T00:44:16.095Z,16.79
2018-09-06T00:44:36.531Z,16.78
2018-09-06T00:44:56.887Z,16.78
2018-09-06T00:45:17.263Z,16.76
2018-09-06T00:45:37.896Z,16.75
2018-09-06T00:45:57.741Z,16.75
2018-09-06T00:46:18.410Z,16.74
2018-09-06T00:46:38.559Z,16.75
2018-09-06T00:46:58.411Z,16.74
2018-09-06T00:47:19.101Z,16.74
2018-09-06T00:47:39.105Z,16.72
2018-09-06T00:47:59.442Z,16.71
2018-09-06T00:48:20.157Z,16.71
2018-09-06T00:48:40.014Z,16.69
2018-09-06T00:49:00.365Z,16.69
2018-09-06T00:49:21.138Z,16.69
2018-09-06T00:49:40.994Z,16.66
2018-09-06T00:50:01.514Z,16.67
2018-09-06T00:50:21.715Z,16.67
2018-09-06T00:50:41.561Z,16.66
2018-09-06T00:51:01.913Z,16.65
2018-09-06T00:51:22.560Z,16.63
2018-09-06T00:51:42.414Z,16.62
2018-09-06T00:52:03.074Z,16.62
2018-09-06T00:52:23.236Z,16.60
2018-09-06T00:52:43.088Z,16.60
2018-09-06T00:53:03.733Z,16.58
2018-09-06T00:53:24.007Z,16.58
2018-09-06T00:53:43.860Z,16.56
2018-09-06T00:54:04.580Z,16.56
2018-09-06T00:54:24.600Z,16.55
2018-09-06T00:54:44.446Z,16.55
2018-09-06T00:55:05.099Z,16.54
2018-09-06T00:55:25.001Z,16.53
2018-09-06T00:55:45.349Z,16.53
2018-09-06T00:56:06.068Z,16.53
2018-09-06T00:56:25.920Z,16.53
2018-09-06T00:56:46.269Z,16.51
2018-09-06T00:57:06.953Z,16.52
2018-09-06T00:57:26.806Z,16.50
2018-09-06T00:57:47.165Z,16.50
2018-09-06T00:58:07.802Z,16.51
2018-09-06T00:58:27.659Z,16.51
2018-09-06T00:58:48.113Z,16.50
2018-09-06T00:59:08.646Z,16.50
2018-09-06T00:59:28.488Z,16.49
2018-09-06T00:59:49.189Z,16.49
2018-09-06T01:00:09.500Z,16.49
2018-09-06T01:00:29.350Z,16.50
2018-09-06T01:00:50.051Z,16.49
2018-09-06T01:01:09.898Z,16.48
2018-09-06T01:01:30.241Z,16.49
2018-09-06T01:01:50.959Z,16.48
2018-09-06T01:02:11.011Z,16.48
2018-09-06T01:02:30.872Z,16.49
2018-09-06T01:02:51.522Z,16.49
2018-09-06T01:03:11.367Z,16.50
2018-09-06T01:03:31.719Z,16.50
2018-09-06T01:03:52.369Z,16.49
2018-09-06T01:04:12.231Z,16.49
2018-09-06T01:04:32.667Z,16.50
2018-09-06T01:04:53.322Z,16.49
2018-09-06T01:05:13.237Z,16.48
2018-09-06T01:05:33.947Z,16.48
2018-09-06T01:05:54.056Z,16.47
2018-09-06T01:06:13.910Z,16.46
2018-09-06T01:06:34.603Z,16.45
2018-09-06T01:07:14.513Z,16.46
2018-09-06T01:07:35.211Z,16.45
2018-09-06T01:07:55.060Z,16.46
2018-09-06T01:08:15.415Z,16.48
2018-09-06T01:08:36.119Z,16.48
2018-09-06T01:08:55.996Z,16.48
2018-09-06T01:09:16.333Z,16.49
2018-09-06T01:09:37.020Z,16.48
2018-09-06T01:09:56.879Z,16.48
2018-09-06T01:10:17.501Z,16.47
2018-09-06T01:10:37.652Z,16.47
2018-09-06T01:10:57.506Z,16.47
2018-09-06T01:11:17.867Z,16.48
2018-09-06T01:11:38.512Z,16.46
2018-09-06T01:11:58.356Z,16.47
2018-09-06T01:12:19.098Z,16.46
2018-09-06T01:12:39.315Z,16.45
2018-09-06T01:12:59.171Z,16.45
2018-09-06T01:13:19.910Z,16.44
2018-09-06T01:13:39.844Z,16.43
2018-09-06T01:14:00.199Z,16.43
2018-09-06T01:14:20.921Z,16.44
2018-09-06T01:14:40.777Z,16.43
2018-09-06T01:15:01.132Z,16.44
2018-09-06T01:15:21.875Z,16.44
2018-09-06T01:15:41.789Z,16.44
2018-09-06T01:16:02.430Z,16.43
2018-09-06T01:16:22.600Z,16.44
2018-09-06T01:16:42.447Z,16.44
2018-09-06T01:17:03.146Z,16.44
2018-09-06T01:17:23.304Z,16.44
2018-09-06T01:17:43.155Z,16.44
2018-09-06T01:18:03.910Z,16.43
2018-09-06T01:18:24.043Z,16.43
2018-09-06T01:18:43.893Z,16.42
2018-09-06T01:19:04.598Z,16.43
2018-09-06T01:19:24.745Z,16.42
2018-09-06T01:19:44.584Z,16.42
2018-09-06T01:20:05.228Z,16.42
2018-09-06T01:20:25.098Z,16.40
2018-09-06T01:20:45.477Z,16.40
2018-09-06T01:21:06.169Z,16.41
2018-09-06T01:21:26.019Z,16.41
2018-09-06T01:21:46.378Z,16.41
2018-09-06T01:22:07.088Z,16.41
2018-09-06T01:22:26.933Z,16.40
2018-09-06T01:22:47.366Z,16.41
2018-09-06T01:23:08.009Z,16.41
2018-09-06T01:23:27.867Z,16.40
2018-09-06T01:23:48.484Z,16.39
2018-09-06T01:24:08.336Z,16.38
2018-09-06T01:24:28.704Z,16.38
2018-09-06T01:24:49.429Z,16.38
2018-09-06T01:25:09.295Z,16.38
2018-09-06T01:25:50.065Z,16.37
2018-09-06T01:26:10.000Z,16.37
2018-09-06T01:26:30.360Z,16.35
2018-09-06T01:26:51.025Z,16.33
2018-09-06T01:27:10.876Z,16.33
2018-09-06T01:27:31.337Z,16.32
2018-09-06T01:27:52.053Z,16.30
2018-09-06T01:28:11.902Z,16.29
2018-09-06T01:28:32.260Z,16.28
2018-09-06T01:28:52.900Z,16.28
2018-09-06T01:29:12.749Z,16.28
2018-09-06T01:29:33.355Z,16.27
2018-09-06T01:29:53.492Z,16.28
2018-09-06T01:30:13.354Z,16.28
2018-09-06T01:30:34.125Z,16.28
2018-09-06T01:30:54.266Z,16.27
2018-09-06T01:31:14.155Z,16.27
2018-09-06T01:31:34.920Z,16.26
2018-09-06T01:31:54.778Z,16.26
2018-09-06T01:32:15.188Z,16.26
2018-09-06T01:32:35.965Z,16.25
2018-09-06T01:32:55.823Z,16.24
2018-09-06T01:33:16.171Z,16.23
2018-09-06T01:33:36.844Z,16.22
2018-09-06T01:33:56.696Z,16.20
2018-09-06T01:34:17.057Z,16.20
2018-09-06T01:34:37.725Z,16.21
2018-09-06T01:34:57.583Z,16.20
2018-09-06T01:35:17.988Z,16.20
2018-09-06T01:35:38.631Z,16.20
2018-09-06T01:35:58.499Z,16.20
2018-09-06T01:36:19.204Z,16.19
2018-09-06T01:36:39.127Z,16.19
2018-09-06T01:36:59.682Z,16.20
2018-09-06T01:37:19.893Z,16.20
2018-09-06T01:37:39.754Z,16.20
2018-09-06T01:38:00.107Z,16.19
2018-09-06T01:38:20.869Z,16.19
2018-09-06T01:38:40.692Z,16.21
2018-09-06T01:39:01.044Z,16.20
2018-09-06T01:39:21.695Z,16.21
2018-09-06T01:39:41.541Z,16.21
2018-09-06T01:40:01.981Z,16.23
2018-09-06T01:40:22.621Z,16.23
2018-09-06T01:40:42.736Z,16.25
2018-09-06T01:41:02.916Z,16.25
2018-09-06T01:41:23.058Z,16.26
2018-09-06T01:41:42.931Z,16.25
2018-09-06T01:42:03.514Z,16.25
2018-09-06T01:42:23.661Z,16.24
2018-09-06T01:42:43.521Z,16.23
2018-09-06T01:43:04.227Z,16.22
2018-09-06T01:43:24.219Z,16.22
2018-09-06T01:43:44.560Z,16.21
2018-09-06T01:44:05.295Z,16.20
2018-09-06T01:44:25.406Z,16.20
2018-09-06T01:44:45.259Z,16.20
2018-09-06T01:45:06.005Z,16.20
2018-09-06T01:45:25.865Z,16.20
2018-09-06T01:45:46.218Z,16.20
2018-09-06T01:46:06.905Z,16.21
2018-09-06T01:46:26.762Z,16.20
2018-09-06T01:46:47.125Z,16.19
2018-09-06T01:47:07.759Z,16.19
2018-09-06T01:47:27.593Z,16.18
2018-09-06T01:47:48.016Z,16.17
2018-09-06T01:48:08.384Z,16.16
2018-09-06T01:48:28.732Z,16.15
2018-09-06T01:48:49.422Z,16.13
2018-09-06T01:49:09.273Z,16.11
2018-09-06T01:49:29.619Z,16.10
2018-09-06T01:49:50.320Z,16.08
2018-09-06T01:50:10.178Z,16.05
2018-09-06T01:50:30.522Z,16.04
2018-09-06T01:50:51.217Z,16.02
2018-09-06T01:51:11.070Z,16.03
2018-09-06T01:51:31.437Z,16.00
2018-09-06T01:51:52.106Z,16.01
2018-09-06T01:52:12.172Z,15.99
2018-09-06T01:52:32.062Z,15.98
2018-09-06T01:52:52.708Z,15.98
2018-09-06T01:53:12.553Z,15.98
2018-09-06T01:53:33.025Z,15.97
2018-09-06T01:53:53.676Z,15.97
2018-09-06T01:54:13.532Z,15.97
2018-09-06T01:54:34.237Z,15.95
2018-09-06T01:54:54.250Z,15.96
2018-09-06T01:55:14.425Z,15.95
2018-09-06T01:55:34.665Z,15.95
2018-09-06T01:55:54.608Z,15.93
2018-09-06T01:56:14.977Z,15.93
2018-09-06T01:56:35.682Z,15.93
2018-09-06T01:56:55.655Z,15.92
2018-09-06T01:57:16.064Z,15.92
2018-09-06T01:57:36.733Z,15.91
2018-09-06T01:57:56.659Z,15.91
2018-09-06T01:58:17.049Z,15.89
2018-09-06T01:58:37.701Z,15.90
2018-09-06T01:58:57.545Z,15.89
2018-09-06T01:59:18.044Z,15.89
2018-09-06T01:59:38.694Z,15.88
2018-09-06T01:59:58.553Z,15.87
2018-09-06T02:00:19.291Z,15.87
2018-09-06T02:00:39.297Z,15.86
2018-09-06T02:00:59.150Z,15.85
2018-09-06T02:01:19.866Z,15.84
2018-09-06T02:01:39.723Z,15.82
2018-09-06T02:02:00.083Z,15.81
2018-09-06T02:02:20.813Z,15.79
2018-09-06T02:02:40.670Z,15.77
2018-09-06T02:03:01.076Z,15.75
2018-09-06T02:03:21.738Z,15.74
2018-09-06T02:03:41.680Z,15.76
2018-09-06T02:04:02.309Z,15.75
2018-09-06T02:04:22.462Z,15.74
2018-09-06T02:04:42.316Z,15.75
2018-09-06T02:05:22.963Z,15.75
2018-09-06T02:05:42.819Z,15.78
2018-09-06T02:06:03.513Z,15.80
2018-09-06T02:06:23.670Z,15.80
2018-09-06T02:06:43.552Z,15.82
2018-09-06T02:07:04.263Z,15.82
2018-09-06T02:07:24.427Z,15.83
2018-09-06T02:07:44.280Z,15.83
2018-09-06T02:08:04.970Z,15.83
2018-09-06T02:08:24.817Z,15.82
2018-09-06T02:08:45.202Z,15.83
2018-09-06T02:09:05.950Z,15.82
2018-09-06T02:09:25.817Z,15.83
2018-09-06T02:09:46.152Z,15.82
2018-09-06T02:10:06.792Z,15.83
2018-09-06T02:10:26.673Z,15.82
2018-09-06T02:10:47.140Z,15.81
2018-09-06T02:11:07.781Z,15.81
2018-09-06T02:11:27.659Z,15.81
2018-09-06T02:11:48.082Z,15.81
2018-09-06T02:12:08.886Z,15.80
2018-09-06T02:12:28.743Z,15.80
2018-09-06T02:12:49.453Z,15.81
2018-09-06T02:13:09.436Z,15.80
2018-09-06T02:13:29.789Z,15.80
2018-09-06T02:13:50.483Z,15.80
2018-09-06T02:14:10.460Z,15.79
2018-09-06T02:14:30.803Z,15.79
2018-09-06T02:15:11.391Z,15.77
2018-09-06T02:15:31.238Z,15.78
2018-09-06T02:15:51.906Z,15.76
2018-09-06T02:16:11.751Z,15.76
2018-09-06T02:16:32.124Z,15.77
2018-09-06T02:16:52.761Z,15.77
2018-09-06T02:17:12.600Z,15.76
2018-09-06T02:17:33.001Z,15.76
2018-09-06T02:17:53.646Z,15.76
2018-09-06T02:18:13.504Z,15.77
2018-09-06T02:18:34.260Z,15.76
2018-09-06T02:18:54.275Z,15.76
2018-09-06T02:19:14.195Z,15.76
2018-09-06T02:19:34.932Z,15.76
2018-09-06T02:19:54.861Z,15.75
2018-09-06T02:20:15.489Z,15.76
2018-09-06T02:20:35.714Z,15.75
2018-09-06T02:20:55.566Z,15.75
2018-09-06T02:21:15.951Z,15.75
2018-09-06T02:21:36.608Z,15.75
2018-09-06T02:21:56.466Z,15.76
2018-09-06T02:22:16.818Z,15.74
2018-09-06T02:22:37.474Z,15.75
2018-09-06T02:22:57.334Z,15.74
2018-09-06T02:23:17.916Z,15.76
2018-09-06T02:23:38.052Z,15.75
2018-09-06T02:23:57.906Z,15.75
2018-09-06T02:24:18.607Z,15.75
2018-09-06T02:24:38.690Z,15.75
2018-09-06T02:24:58.536Z,15.75
2018-09-06T02:25:19.255Z,15.74
2018-09-06T02:25:39.529Z,15.75
2018-09-06T02:25:59.379Z,15.76
2018-09-06T02:26:20.110Z,15.77
2018-09-06T02:26:39.974Z,15.76
2018-09-06T02:27:00.319Z,15.77
2018-09-06T02:27:20.947Z,15.77
2018-09-06T02:27:40.794Z,15.77
2018-09-06T02:28:01.154Z,15.76
2018-09-06T02:28:21.842Z,15.78
2018-09-06T02:28:41.775Z,15.78
2018-09-06T02:29:02.443Z,15.77
2018-09-06T02:29:22.588Z,15.78
2018-09-06T02:29:42.544Z,15.77
2018-09-06T02:30:03.213Z,15.77
2018-09-06T02:30:23.356Z,15.77
2018-09-06T02:30:43.196Z,15.76
2018-09-06T02:31:03.893Z,15.75
2018-09-06T02:31:24.042Z,15.75
2018-09-06T02:31:43.920Z,15.76
2018-09-06T02:32:04.647Z,15.76
2018-09-06T02:32:24.498Z,15.76
2018-09-06T02:32:44.864Z,15.77
2018-09-06T02:33:05.566Z,15.77
2018-09-06T02:33:25.429Z,15.78
2018-09-06T02:33:45.779Z,15.76
2018-09-06T02:34:06.487Z,15.77
2018-09-06T02:34:26.361Z,15.76
2018-09-06T02:34:46.720Z,15.76
2018-09-06T02:35:07.400Z,15.75
2018-09-06T02:35:27.256Z,15.75
2018-09-06T02:35:47.625Z,15.75
2018-09-06T02:36:08.240Z,15.74
2018-09-06T02:36:28.105Z,15.74
2018-09-06T02:36:48.798Z,15.73
2018-09-06T02:37:09.080Z,15.73
2018-09-06T02:37:29.156Z,15.72
2018-09-06T02:37:49.403Z,15.71
2018-09-06T02:38:09.475Z,15.71
2018-09-06T02:38:29.329Z,15.71
2018-09-06T02:38:50.067Z,15.70
2018-09-06T02:39:09.919Z,15.71
2018-09-06T02:39:30.286Z,15.69
2018-09-06T02:39:50.984Z,15.70
2018-09-06T02:40:10.849Z,15.71
2018-09-06T02:40:31.196Z,15.70
2018-09-06T02:40:51.859Z,15.70
2018-09-06T02:41:11.706Z,15.70
2018-09-06T02:41:32.222Z,15.70
2018-09-06T02:41:52.420Z,15.71
2018-09-06T02:42:12.268Z,15.72
2018-09-06T02:42:32.627Z,15.73
2018-09-06T02:42:53.280Z,15.73
2018-09-06T02:43:13.146Z,15.73
2018-09-06T02:43:33.847Z,15.74
2018-09-06T02:43:53.957Z,15.72
2018-09-06T02:44:13.819Z,15.73
2018-09-06T02:44:34.578Z,15.73
2018-09-06T02:44:54.720Z,15.73
2018-09-06T02:45:14.877Z,15.73
2018-09-06T02:45:35.080Z,15.74
2018-09-06T02:45:54.968Z,15.74
2018-09-06T02:46:15.331Z,15.73
2018-09-06T02:46:36.013Z,15.75
2018-09-06T02:46:56.022Z,15.75
2018-09-06T02:47:16.018Z,15.75
2018-09-06T02:47:36.700Z,15.75
2018-09-06T02:47:56.591Z,15.75
2018-09-06T02:48:17.181Z,15.74
2018-09-06T02:48:37.352Z,15.75
2018-09-06T02:48:57.354Z,15.75
2018-09-06T02:49:17.700Z,15.76
2018-09-06T02:49:38.352Z,15.77
2018-09-06T02:49:58.226Z,15.77
2018-09-06T02:50:18.912Z,15.77
2018-09-06T02:50:39.100Z,15.76
2018-09-06T02:50:58.961Z,15.78
2018-09-06T02:51:19.648Z,15.77
2018-09-06T02:51:39.515Z,15.77
2018-09-06T02:51:59.862Z,15.78
2018-09-06T02:52:20.597Z,15.77
2018-09-06T02:52:40.458Z,15.76
2018-09-06T02:53:00.834Z,15.76
2018-09-06T02:53:21.523Z,15.76
2018-09-06T02:53:41.400Z,15.74
2018-09-06T02:54:01.851Z,15.73
2018-09-06T02:54:22.443Z,15.71
2018-09-06T02:54:42.307Z,15.71
2018-09-06T02:55:02.967Z,15.71
2018-09-06T02:55:23.106Z,15.71
2018-09-06T02:55:42.963Z,15.69
2018-09-06T02:56:03.549Z,15.69
2018-09-06T02:56:23.705Z,15.70
2018-09-06T02:56:43.567Z,15.70
2018-09-06T02:57:04.278Z,15.69
2018-09-06T02:57:24.287Z,15.71
2018-09-06T02:57:44.136Z,15.70
2018-09-06T02:58:04.861Z,15.70
2018-09-06T02:58:24.821Z,15.70
2018-09-06T02:59:05.235Z,15.69
2018-09-06T02:59:25.587Z,15.70
2018-09-06T02:59:45.947Z,15.70
2018-09-06T03:00:06.651Z,15.69
2018-09-06T03:00:26.526Z,15.71
2018-09-06T03:00:46.896Z,15.68
2018-09-06T03:01:07.560Z,15.70
2018-09-06T03:01:27.416Z,15.70
2018-09-06T03:01:47.781Z,15.69
2018-09-06T03:02:08.374Z,15.70
2018-09-06T03:02:28.477Z,15.70
2018-09-06T03:02:48.711Z,15.69
2018-09-06T03:03:08.564Z,15.67
2018-09-06T03:03:28.910Z,15.67
2018-09-06T03:03:49.603Z,15.67
2018-09-06T03:04:09.902Z,15.65
2018-09-06T03:04:29.753Z,15.64
2018-09-06T03:04:50.460Z,15.64
2018-09-06T03:05:10.322Z,15.63
2018-09-06T03:05:30.673Z,15.63
2018-09-06T03:05:51.329Z,15.62
2018-09-06T03:06:11.186Z,15.62
2018-09-06T03:06:31.546Z,15.62
2018-09-06T03:06:52.209Z,15.61
2018-09-06T03:07:12.057Z,15.61
2018-09-06T03:07:32.420Z,15.60
2018-09-06T03:07:53.065Z,15.58
2018-09-06T03:08:13.028Z,15.58
2018-09-06T03:08:33.688Z,15.58
2018-09-06T03:08:54.030Z,15.58
2018-09-06T03:09:14.122Z,15.55
2018-09-06T03:09:34.353Z,15.57
2018-09-06T03:09:54.290Z,15.57
2018-09-06T03:10:14.928Z,15.57
2018-09-06T03:10:35.132Z,15.58
2018-09-06T03:10:55.015Z,15.59
2018-09-06T03:11:15.375Z,15.58
2018-09-06T03:11:36.100Z,15.59
2018-09-06T03:11:55.990Z,15.59
2018-09-06T03:12:16.589Z,15.60
2018-09-06T03:12:36.859Z,15.60
2018-09-06T03:12:56.765Z,15.61
2018-09-06T03:13:17.137Z,15.60
2018-09-06T03:13:37.775Z,15.61
2018-09-06T03:13:57.632Z,15.60
2018-09-06T03:14:18.103Z,15.60
2018-09-06T03:14:38.755Z,15.61
2018-09-06T03:14:58.643Z,15.61
2018-09-06T03:15:19.403Z,15.61
2018-09-06T03:15:39.340Z,15.61
2018-09-06T03:15:59.691Z,15.59
2018-09-06T03:16:20.424Z,15.59
2018-09-06T03:16:40.272Z,15.58
2018-09-06T03:17:00.654Z,15.58
2018-09-06T03:17:21.318Z,15.58
2018-09-06T03:18:01.204Z,15.57
2018-09-06T03:18:21.886Z,15.55
2018-09-06T03:18:41.751Z,15.54
2018-09-06T03:19:02.355Z,15.54
2018-09-06T03:19:22.527Z,15.55
2018-09-06T03:19:42.375Z,15.55
2018-09-06T03:20:03.042Z,15.54
2018-09-06T03:20:23.188Z,15.55
2018-09-06T03:20:43.147Z,15.55
2018-09-06T03:21:03.880Z,15.56
2018-09-06T03:21:24.026Z,15.56
2018-09-06T03:21:43.889Z,15.56
2018-09-06T03:22:04.612Z,15.56
2018-09-06T03:22:24.469Z,15.55
2018-09-06T03:22:44.833Z,15.55
2018-09-06T03:23:05.483Z,15.54
2018-09-06T03:23:25.334Z,15.53
2018-09-06T03:23:45.685Z,15.54
2018-09-06T03:24:06.379Z,15.52
2018-09-06T03:24:26.229Z,15.51
2018-09-06T03:24:46.572Z,15.50
2018-09-06T03:25:07.275Z,15.49
2018-09-06T03:25:27.130Z,15.48
2018-09-06T03:25:47.484Z,15.46
2018-09-06T03:26:08.075Z,15.45
2018-09-06T03:26:27.937Z,15.44
2018-09-06T03:26:48.563Z,15.43
2018-09-06T03:27:08.428Z,15.42
2018-09-06T03:27:28.765Z,15.41
2018-09-06T03:27:49.456Z,15.42
2018-09-06T03:28:09.308Z,15.41
2018-09-06T03:28:29.664Z,15.41
2018-09-06T03:28:50.363Z,15.41
2018-09-06T03:29:10.334Z,15.41
2018-09-06T03:29:30.697Z,15.40
2018-09-06T03:29:51.413Z,15.40
2018-09-06T03:30:11.510Z,15.39
2018-09-06T03:30:31.646Z,15.40
2018-09-06T03:30:51.778Z,15.39
2018-09-06T03:31:11.637Z,15.39
2018-09-06T03:31:31.992Z,15.40
2018-09-06T03:31:52.635Z,15.40
2018-09-06T03:32:12.529Z,15.40
2018-09-06T03:32:32.881Z,15.41
2018-09-06T03:32:53.539Z,15.40
2018-09-06T03:33:13.393Z,15.40
2018-09-06T03:33:34.086Z,15.41
2018-09-06T03:33:54.352Z,15.40
2018-09-06T03:34:14.212Z,15.41
2018-09-06T03:34:34.940Z,15.41
2018-09-06T03:34:54.786Z,15.40
2018-09-06T03:35:15.450Z,15.41
2018-09-06T03:35:35.694Z,15.41
2018-09-06T03:35:55.567Z,15.41
2018-09-06T03:36:16.025Z,15.42
2018-09-06T03:36:36.681Z,15.41
2018-09-06T03:36:56.556Z,15.42
2018-09-06T03:37:16.928Z,15.41
2018-09-06T03:37:37.571Z,15.43
2018-09-06T03:37:57.506Z,15.44
2018-09-06T03:38:38.149Z,15.42
2018-09-06T03:38:58.149Z,15.43
2018-09-06T03:39:18.119Z,15.42
2018-09-06T03:39:38.928Z,15.39
2018-09-06T03:39:58.774Z,15.40
2018-09-06T03:40:19.470Z,15.40
2018-09-06T03:40:39.316Z,15.40
2018-09-06T03:40:59.922Z,15.40
2018-09-06T03:41:20.127Z,15.40
2018-09-06T03:41:40.213Z,15.40
2018-09-06T03:42:00.066Z,15.39
2018-09-06T03:42:20.832Z,15.41
2018-09-06T03:42:40.688Z,15.41
2018-09-06T03:43:01.079Z,15.41
2018-09-06T03:43:21.751Z,15.42
2018-09-06T03:43:41.610Z,15.43
2018-09-06T03:44:02.205Z,15.42
2018-09-06T03:44:22.360Z,15.43
2018-09-06T03:44:42.279Z,15.43
2018-09-06T03:45:02.915Z,15.43
2018-09-06T03:45:23.081Z,15.43
2018-09-06T03:45:42.924Z,15.43
2018-09-06T03:46:03.635Z,15.42
2018-09-06T03:46:23.803Z,15.42
2018-09-06T03:46:43.725Z,15.41
2018-09-06T03:47:04.465Z,15.42
2018-09-06T03:47:24.445Z,15.42
2018-09-06T03:47:44.897Z,15.42
2018-09-06T03:48:05.555Z,15.42
2018-09-06T03:48:25.404Z,15.42
2018-09-06T03:48:45.760Z,15.41
2018-09-06T03:49:06.411Z,15.41
2018-09-06T03:49:26.265Z,15.41
2018-09-06T03:49:46.624Z,15.40
2018-09-06T03:50:07.325Z,15.39
2018-09-06T03:50:27.171Z,15.39
2018-09-06T03:50:47.526Z,15.37
2018-09-06T03:51:08.040Z,15.38
2018-09-06T03:51:27.889Z,15.37
2018-09-06T03:51:48.531Z,15.35
2018-09-06T03:52:08.417Z,15.36
2018-09-06T03:52:28.930Z,15.36
2018-09-06T03:52:49.128Z,15.35
2018-09-06T03:53:09.028Z,15.35
2018-09-06T03:53:29.409Z,15.34
2018-09-06T03:53:50.123Z,15.34
2018-09-06T03:54:09.969Z,15.34
2018-09-06T03:54:30.328Z,15.34
2018-09-06T03:54:50.976Z,15.34
2018-09-06T03:55:10.851Z,15.34
2018-09-06T03:55:31.216Z,15.36
2018-09-06T03:55:51.906Z,15.36
2018-09-06T03:56:11.875Z,15.35
2018-09-06T03:56:32.272Z,15.36
2018-09-06T03:56:52.917Z,15.35
2018-09-06T03:57:12.837Z,15.35
2018-09-06T03:57:33.443Z,15.35
2018-09-06T03:57:53.591Z,15.35
2018-09-06T03:58:13.433Z,15.34
2018-09-06T03:58:34.115Z,15.35
2018-09-06T03:58:54.186Z,15.34
2018-09-06T03:59:14.031Z,15.34
2018-09-06T03:59:34.713Z,15.33
2018-09-06T03:59:54.564Z,15.32
2018-09-06T04:00:15.194Z,15.32
2018-09-06T04:00:35.382Z,15.32
2018-09-06T04:00:55.347Z,15.31
2018-09-06T04:01:15.775Z,15.33
2018-09-06T04:01:36.438Z,15.33
2018-09-06T04:01:56.407Z,15.33
2018-09-06T04:02:16.795Z,15.34
2018-09-06T04:02:37.455Z,15.33
2018-09-06T04:02:57.327Z,15.32
2018-09-06T04:03:17.677Z,15.33
2018-09-06T04:03:38.331Z,15.33
2018-09-06T04:03:58.239Z,15.33
2018-09-06T04:04:18.905Z,15.34
2018-09-06T04:04:39.050Z,15.32
2018-09-06T04:04:58.969Z,15.33
2018-09-06T04:05:19.722Z,15.33
2018-09-06T04:05:39.606Z,15.32
2018-09-06T04:05:59.938Z,15.31
2018-09-06T04:06:20.627Z,15.29
2018-09-06T04:06:40.486Z,15.29
2018-09-06T04:07:00.833Z,15.28
2018-09-06T04:07:41.359Z,15.27
2018-09-06T04:08:01.209Z,15.28
2018-09-06T04:08:21.863Z,15.28
2018-09-06T04:08:41.925Z,15.27
2018-09-06T04:09:01.794Z,15.27
2018-09-06T04:09:22.447Z,15.26
2018-09-06T04:09:42.299Z,15.27
2018-09-06T04:10:03.015Z,15.27
2018-09-06T04:10:23.171Z,15.26
2018-09-06T04:10:43.020Z,15.27
2018-09-06T04:11:03.716Z,15.26
2018-09-06T04:11:23.857Z,15.26
2018-09-06T04:11:43.828Z,15.23
2018-09-06T04:12:04.534Z,15.24
2018-09-06T04:12:24.487Z,15.25
2018-09-06T04:12:44.994Z,15.23
2018-09-06T04:13:05.126Z,15.23
2018-09-06T04:13:25.054Z,15.23
2018-09-06T04:13:45.405Z,15.23
2018-09-06T04:14:06.105Z,15.23
2018-09-06T04:14:25.965Z,15.23
2018-09-06T04:14:46.619Z,15.23
2018-09-06T04:15:06.793Z,15.23
2018-09-06T04:15:26.644Z,15.25
2018-09-06T04:15:46.996Z,15.24
2018-09-06T04:16:07.641Z,15.23
2018-09-06T04:16:27.552Z,15.26
2018-09-06T04:16:47.912Z,15.25
2018-09-06T04:17:08.419Z,15.23
2018-09-06T04:17:28.279Z,15.23
2018-09-06T04:17:49.024Z,15.24
2018-09-06T04:18:09.236Z,15.23
2018-09-06T04:18:29.175Z,15.21
2018-09-06T04:18:49.847Z,15.21
2018-09-06T04:19:09.701Z,15.22
2018-09-06T04:19:30.267Z,15.22
2018-09-06T04:19:50.477Z,15.23
2018-09-06T04:20:10.497Z,15.23
2018-09-06T04:20:30.334Z,15.23
2018-09-06T04:20:50.984Z,15.23
2018-09-06T04:21:10.897Z,15.24
2018-09-06T04:21:31.280Z,15.23
2018-09-06T04:21:51.990Z,15.25
2018-09-06T04:22:11.894Z,15.27
2018-09-06T04:22:32.517Z,15.26
2018-09-06T04:22:52.669Z,15.26
2018-09-06T04:23:12.523Z,15.26
2018-09-06T04:23:32.878Z,15.26
2018-09-06T04:23:53.530Z,15.26